sensor_id;sensor_type;location;lat;lon;timestamp;temperature;humidity
16814;DHT22;8524;57.650;11.926;2022-07-23T00:02:24;15.70;99.90
16814;DHT22;8524;57.650;11.926;2022-07-23T00:04:51;15.70;99.90
16814;DHT22;8524;57.650;11.926;2022-07-23T00:07:18;15.70;99.90
16814;DHT22;8524;57.650;11.926;2022-07-23T00:09:45;15.70;99.90
16814;DHT22;8524;57.650;11.926;2022-07-23T00:12:12;15.70;99.90
16814;DHT22;8524;57.650;11.926;2022-07-23T00:14:40;15.70;99.90
16814;DHT22;8524;57.650;11.926;2022-07-23T00:17:07;15.70;99.90
16814;DHT22;8524;57.650;11.926;2022-07-23T00:19:34;15.80;99.90
16814;DHT22;8524;57.650;11.926;2022-07-23T00:22:01;15.80;99.90
16814;DHT22;8524;57.650;11.926;2022-07-23T00:24:28;15.80;99.90
16814;DHT22;8524;57.650;11.926;2022-07-23T00:26:55;15.80;99.90
16814;DHT22;8524;57.650;11.926;2022-07-23T00:29:22;15.80;99.90
16814;DHT22;8524;57.650;11.926;2022-07-23T00:31:50;15.90;99.90
16814;DHT22;8524;57.650;11.926;2022-07-23T00:34:18;16.00;99.90
16814;DHT22;8524;57.650;11.926;2022-07-23T00:36:45;16.00;99.90
16814;DHT22;8524;57.650;11.926;2022-07-23T00:39:12;15.90;99.90
16814;DHT22;8524;57.650;11.926;2022-07-23T00:41:39;15.90;99.90
16814;DHT22;8524;57.650;11.926;2022-07-23T00:44:17;15.90;99.90
16814;DHT22;8524;57.650;11.926;2022-07-23T00:46:48;15.90;99.90
16814;DHT22;8524;57.650;11.926;2022-07-23T00:49:20;15.90;99.90
16814;DHT22;8524;57.650;11.926;2022-07-23T00:51:48;16.00;99.90
16814;DHT22;8524;57.650;11.926;2022-07-23T00:54:15;16.00;99.90
16814;DHT22;8524;57.650;11.926;2022-07-23T00:56:43;15.90;99.90
16814;DHT22;8524;57.650;11.926;2022-07-23T00:59:11;15.90;99.90
16814;DHT22;8524;57.650;11.926;2022-07-23T01:01:38;15.90;99.90
16814;DHT22;8524;57.650;11.926;2022-07-23T01:04:06;15.90;99.90
16814;DHT22;8524;57.650;11.926;2022-07-23T01:06:35;16.00;99.90
16814;DHT22;8524;57.650;11.926;2022-07-23T01:09:03;16.20;99.90
16814;DHT22;8524;57.650;11.926;2022-07-23T01:11:33;16.30;99.90
16814;DHT22;8524;57.650;11.926;2022-07-23T01:14:08;16.30;99.90
16814;DHT22;8524;57.650;11.926;2022-07-23T01:16:35;16.40;99.90
16814;DHT22;8524;57.650;11.926;2022-07-23T01:19:02;16.40;99.90
16814;DHT22;8524;57.650;11.926;2022-07-23T01:21:34;16.40;99.90
16814;DHT22;8524;57.650;11.926;2022-07-23T01:24:04;16.40;99.90
16814;DHT22;8524;57.650;11.926;2022-07-23T01:26:31;16.40;99.90
16814;DHT22;8524;57.650;11.926;2022-07-23T01:28:58;16.40;99.90
16814;DHT22;8524;57.650;11.926;2022-07-23T01:31:25;16.40;99.90
16814;DHT22;8524;57.650;11.926;2022-07-23T01:33:53;16.40;99.90
16814;DHT22;8524;57.650;11.926;2022-07-23T01:36:19;16.40;99.90
16814;DHT22;8524;57.650;11.926;2022-07-23T01:38:46;16.40;99.90
16814;DHT22;8524;57.650;11.926;2022-07-23T01:41:15;16.30;99.90
16814;DHT22;8524;57.650;11.926;2022-07-23T01:43:42;16.30;99.90
16814;DHT22;8524;57.650;11.926;2022-07-23T01:46:09;16.30;99.90
16814;DHT22;8524;57.650;11.926;2022-07-23T01:48:36;16.30;99.90
16814;DHT22;8524;57.650;11.926;2022-07-23T01:51:03;16.40;99.90
16814;DHT22;8524;57.650;11.926;2022-07-23T01:53:30;16.40;99.90
16814;DHT22;8524;57.650;11.926;2022-07-23T01:55:57;16.40;99.90
16814;DHT22;8524;57.650;11.926;2022-07-23T01:58:26;16.40;99.90
16814;DHT22;8524;57.650;11.926;2022-07-23T02:00:53;16.40;99.90
16814;DHT22;8524;57.650;11.926;2022-07-23T02:03:20;16.40;99.90
16814;DHT22;8524;57.650;11.926;2022-07-23T02:05:47;16.40;99.90
16814;DHT22;8524;57.650;11.926;2022-07-23T02:08:14;16.40;99.90
16814;DHT22;8524;57.650;11.926;2022-07-23T02:10:41;16.30;99.90
16814;DHT22;8524;57.650;11.926;2022-07-23T02:13:08;16.30;99.90
16814;DHT22;8524;57.650;11.926;2022-07-23T02:15:37;16.30;99.90
16814;DHT22;8524;57.650;11.926;2022-07-23T02:18:04;16.30;99.90
16814;DHT22;8524;57.650;11.926;2022-07-23T02:20:31;16.30;99.90
16814;DHT22;8524;57.650;11.926;2022-07-23T02:22:59;16.30;99.90
16814;DHT22;8524;57.650;11.926;2022-07-23T02:25:26;16.40;99.90
16814;DHT22;8524;57.650;11.926;2022-07-23T02:27:53;16.40;99.90
16814;DHT22;8524;57.650;11.926;2022-07-23T02:30:19;16.30;99.90
16814;DHT22;8524;57.650;11.926;2022-07-23T02:32:48;16.20;99.90
16814;DHT22;8524;57.650;11.926;2022-07-23T02:35:15;16.20;99.90
16814;DHT22;8524;57.650;11.926;2022-07-23T02:37:42;16.20;99.90
16814;DHT22;8524;57.650;11.926;2022-07-23T02:40:10;16.30;99.90
16814;DHT22;8524;57.650;11.926;2022-07-23T02:42:37;16.30;99.90
16814;DHT22;8524;57.650;11.926;2022-07-23T02:45:05;16.30;99.90
16814;DHT22;8524;57.650;11.926;2022-07-23T02:47:32;16.30;99.90
16814;DHT22;8524;57.650;11.926;2022-07-23T02:50:01;16.30;99.90
16814;DHT22;8524;57.650;11.926;2022-07-23T02:52:29;16.30;99.90
16814;DHT22;8524;57.650;11.926;2022-07-23T02:54:56;16.30;99.90
16814;DHT22;8524;57.650;11.926;2022-07-23T02:57:23;16.30;99.90
16814;DHT22;8524;57.650;11.926;2022-07-23T02:59:50;16.30;99.90
16814;DHT22;8524;57.650;11.926;2022-07-23T03:02:16;16.20;99.90
16814;DHT22;8524;57.650;11.926;2022-07-23T03:04:43;16.20;99.90
16814;DHT22;8524;57.650;11.926;2022-07-23T03:07:12;16.10;99.90
16814;DHT22;8524;57.650;11.926;2022-07-23T03:09:39;16.10;99.90
16814;DHT22;8524;57.650;11.926;2022-07-23T03:12:06;16.10;99.90
16814;DHT22;8524;57.650;11.926;2022-07-23T03:14:33;16.20;99.90
16814;DHT22;8524;57.650;11.926;2022-07-23T03:17:00;16.20;99.90
16814;DHT22;8524;57.650;11.926;2022-07-23T03:19:27;16.20;99.90
16814;DHT22;8524;57.650;11.926;2022-07-23T03:21:54;16.10;99.90
16814;DHT22;8524;57.650;11.926;2022-07-23T03:24:22;16.10;99.90
16814;DHT22;8524;57.650;11.926;2022-07-23T03:27:10;16.10;99.90
16814;DHT22;8524;57.650;11.926;2022-07-23T03:29:36;16.20;99.90
16814;DHT22;8524;57.650;11.926;2022-07-23T03:32:04;16.20;99.90
16814;DHT22;8524;57.650;11.926;2022-07-23T03:34:31;16.20;99.90
16814;DHT22;8524;57.650;11.926;2022-07-23T03:36:58;16.20;99.90
16814;DHT22;8524;57.650;11.926;2022-07-23T03:39:26;16.20;99.90
16814;DHT22;8524;57.650;11.926;2022-07-23T03:41:53;16.20;99.90
16814;DHT22;8524;57.650;11.926;2022-07-23T03:44:20;16.20;99.90
16814;DHT22;8524;57.650;11.926;2022-07-23T03:46:47;16.20;99.90
16814;DHT22;8524;57.650;11.926;2022-07-23T03:49:14;16.20;99.90
16814;DHT22;8524;57.650;11.926;2022-07-23T03:51:41;16.20;99.90
16814;DHT22;8524;57.650;11.926;2022-07-23T03:54:08;16.20;99.90
16814;DHT22;8524;57.650;11.926;2022-07-23T03:56:36;16.20;99.90
16814;DHT22;8524;57.650;11.926;2022-07-23T03:59:03;16.20;99.90
16814;DHT22;8524;57.650;11.926;2022-07-23T04:01:30;16.10;99.90
16814;DHT22;8524;57.650;11.926;2022-07-23T04:03:57;16.10;99.90
16814;DHT22;8524;57.650;11.926;2022-07-23T04:06:24;16.10;99.90
16814;DHT22;8524;57.650;11.926;2022-07-23T04:08:51;16.20;99.90
16814;DHT22;8524;57.650;11.926;2022-07-23T04:11:18;16.20;99.90
16814;DHT22;8524;57.650;11.926;2022-07-23T04:13:46;16.20;99.90
16814;DHT22;8524;57.650;11.926;2022-07-23T04:16:13;16.20;99.90
16814;DHT22;8524;57.650;11.926;2022-07-23T04:18:40;16.30;99.90
16814;DHT22;8524;57.650;11.926;2022-07-23T04:21:07;16.30;99.90
16814;DHT22;8524;57.650;11.926;2022-07-23T04:23:34;16.40;99.90
16814;DHT22;8524;57.650;11.926;2022-07-23T04:26:01;16.40;99.90
16814;DHT22;8524;57.650;11.926;2022-07-23T04:28:28;16.40;99.90
16814;DHT22;8524;57.650;11.926;2022-07-23T04:30:57;16.50;99.90
16814;DHT22;8524;57.650;11.926;2022-07-23T04:33:24;16.50;99.90
16814;DHT22;8524;57.650;11.926;2022-07-23T04:35:51;16.50;99.90
16814;DHT22;8524;57.650;11.926;2022-07-23T04:38:18;16.50;99.90
16814;DHT22;8524;57.650;11.926;2022-07-23T04:40:45;16.50;99.90
16814;DHT22;8524;57.650;11.926;2022-07-23T04:43:12;16.60;99.90
16814;DHT22;8524;57.650;11.926;2022-07-23T04:45:39;16.70;99.90
16814;DHT22;8524;57.650;11.926;2022-07-23T04:48:07;16.80;99.90
16814;DHT22;8524;57.650;11.926;2022-07-23T04:50:34;16.80;99.90
16814;DHT22;8524;57.650;11.926;2022-07-23T04:53:01;16.90;99.90
16814;DHT22;8524;57.650;11.926;2022-07-23T04:55:28;17.00;99.90
16814;DHT22;8524;57.650;11.926;2022-07-23T04:57:55;17.10;99.90
16814;DHT22;8524;57.650;11.926;2022-07-23T05:00:22;17.20;99.90
16814;DHT22;8524;57.650;11.926;2022-07-23T05:02:49;17.10;99.90
16814;DHT22;8524;57.650;11.926;2022-07-23T05:05:17;17.20;99.90
16814;DHT22;8524;57.650;11.926;2022-07-23T05:07:44;17.10;99.90
16814;DHT22;8524;57.650;11.926;2022-07-23T05:10:11;17.00;99.90
16814;DHT22;8524;57.650;11.926;2022-07-23T05:12:38;17.10;99.90
16814;DHT22;8524;57.650;11.926;2022-07-23T05:15:05;17.10;99.90
16814;DHT22;8524;57.650;11.926;2022-07-23T05:17:32;17.00;99.90
16814;DHT22;8524;57.650;11.926;2022-07-23T05:19:59;17.10;99.90
16814;DHT22;8524;57.650;11.926;2022-07-23T05:22:27;17.10;99.90
16814;DHT22;8524;57.650;11.926;2022-07-23T05:24:55;17.00;99.90
16814;DHT22;8524;57.650;11.926;2022-07-23T05:27:22;17.00;99.90
16814;DHT22;8524;57.650;11.926;2022-07-23T05:29:48;17.00;99.90
16814;DHT22;8524;57.650;11.926;2022-07-23T05:32:15;17.00;99.90
16814;DHT22;8524;57.650;11.926;2022-07-23T05:34:42;17.00;99.90
16814;DHT22;8524;57.650;11.926;2022-07-23T05:37:09;17.00;99.90
16814;DHT22;8524;57.650;11.926;2022-07-23T05:39:38;17.00;99.90
16814;DHT22;8524;57.650;11.926;2022-07-23T05:42:05;17.00;99.90
16814;DHT22;8524;57.650;11.926;2022-07-23T05:44:32;17.00;99.90
16814;DHT22;8524;57.650;11.926;2022-07-23T05:46:59;17.00;99.90
16814;DHT22;8524;57.650;11.926;2022-07-23T05:49:26;17.10;99.90
16814;DHT22;8524;57.650;11.926;2022-07-23T05:51:52;17.10;99.90
16814;DHT22;8524;57.650;11.926;2022-07-23T05:54:19;17.10;99.90
16814;DHT22;8524;57.650;11.926;2022-07-23T05:56:48;17.00;99.90
16814;DHT22;8524;57.650;11.926;2022-07-23T05:59:15;17.00;99.90
16814;DHT22;8524;57.650;11.926;2022-07-23T06:01:42;17.10;99.90
16814;DHT22;8524;57.650;11.926;2022-07-23T06:04:09;17.10;99.90
16814;DHT22;8524;57.650;11.926;2022-07-23T06:06:36;17.10;99.90
16814;DHT22;8524;57.650;11.926;2022-07-23T06:09:03;17.10;99.90
16814;DHT22;8524;57.650;11.926;2022-07-23T06:11:30;17.10;99.90
16814;DHT22;8524;57.650;11.926;2022-07-23T06:13:58;17.00;99.90
16814;DHT22;8524;57.650;11.926;2022-07-23T06:16:25;17.00;99.90
16814;DHT22;8524;57.650;11.926;2022-07-23T06:18:52;17.00;99.90
16814;DHT22;8524;57.650;11.926;2022-07-23T06:21:19;17.10;99.90
16814;DHT22;8524;57.650;11.926;2022-07-23T06:23:46;17.20;99.90
16814;DHT22;8524;57.650;11.926;2022-07-23T06:26:13;17.10;99.90
16814;DHT22;8524;57.650;11.926;2022-07-23T06:28:40;17.00;99.90
16814;DHT22;8524;57.650;11.926;2022-07-23T06:31:08;17.10;99.90
16814;DHT22;8524;57.650;11.926;2022-07-23T06:33:35;17.10;99.90
16814;DHT22;8524;57.650;11.926;2022-07-23T06:36:02;17.20;99.90
16814;DHT22;8524;57.650;11.926;2022-07-23T06:38:29;17.00;99.90
16814;DHT22;8524;57.650;11.926;2022-07-23T06:40:56;17.10;99.90
16814;DHT22;8524;57.650;11.926;2022-07-23T06:43:23;17.00;99.90
16814;DHT22;8524;57.650;11.926;2022-07-23T06:45:50;17.20;99.90
16814;DHT22;8524;57.650;11.926;2022-07-23T06:48:18;17.20;99.90
16814;DHT22;8524;57.650;11.926;2022-07-23T06:50:45;17.30;99.90
16814;DHT22;8524;57.650;11.926;2022-07-23T06:53:12;17.30;99.90
16814;DHT22;8524;57.650;11.926;2022-07-23T06:55:39;17.30;99.90
16814;DHT22;8524;57.650;11.926;2022-07-23T06:58:07;17.30;99.90
16814;DHT22;8524;57.650;11.926;2022-07-23T07:00:35;17.30;99.90
16814;DHT22;8524;57.650;11.926;2022-07-23T07:03:02;17.30;99.90
16814;DHT22;8524;57.650;11.926;2022-07-23T07:05:32;17.40;99.90
16814;DHT22;8524;57.650;11.926;2022-07-23T07:07:59;17.50;99.90
16814;DHT22;8524;57.650;11.926;2022-07-23T07:10:25;17.60;99.90
16814;DHT22;8524;57.650;11.926;2022-07-23T07:12:52;17.60;99.90
16814;DHT22;8524;57.650;11.926;2022-07-23T07:15:19;17.60;99.90
16814;DHT22;8524;57.650;11.926;2022-07-23T07:17:46;17.60;99.90
16814;DHT22;8524;57.650;11.926;2022-07-23T07:20:13;17.70;99.90
16814;DHT22;8524;57.650;11.926;2022-07-23T07:22:42;17.60;99.90
16814;DHT22;8524;57.650;11.926;2022-07-23T07:25:09;17.60;99.90
16814;DHT22;8524;57.650;11.926;2022-07-23T07:27:36;17.50;99.90
16814;DHT22;8524;57.650;11.926;2022-07-23T07:30:04;17.50;99.90
16814;DHT22;8524;57.650;11.926;2022-07-23T07:32:31;17.50;99.90
16814;DHT22;8524;57.650;11.926;2022-07-23T07:34:59;17.60;99.90
16814;DHT22;8524;57.650;11.926;2022-07-23T07:37:26;17.50;99.90
16814;DHT22;8524;57.650;11.926;2022-07-23T07:39:54;17.50;99.90
16814;DHT22;8524;57.650;11.926;2022-07-23T07:42:21;17.30;99.90
16814;DHT22;8524;57.650;11.926;2022-07-23T07:44:48;17.40;99.90
16814;DHT22;8524;57.650;11.926;2022-07-23T07:47:15;17.50;99.90
16814;DHT22;8524;57.650;11.926;2022-07-23T07:49:42;17.50;99.90
16814;DHT22;8524;57.650;11.926;2022-07-23T07:52:09;17.40;99.90
16814;DHT22;8524;57.650;11.926;2022-07-23T07:54:36;17.50;99.90
16814;DHT22;8524;57.650;11.926;2022-07-23T07:57:05;17.50;99.90
16814;DHT22;8524;57.650;11.926;2022-07-23T07:59:32;17.60;99.90
16814;DHT22;8524;57.650;11.926;2022-07-23T08:01:59;17.50;99.90
16814;DHT22;8524;57.650;11.926;2022-07-23T08:04:25;17.50;99.90
16814;DHT22;8524;57.650;11.926;2022-07-23T08:06:52;17.50;99.90
16814;DHT22;8524;57.650;11.926;2022-07-23T08:09:19;17.50;99.90
16814;DHT22;8524;57.650;11.926;2022-07-23T08:11:46;17.50;99.90
16814;DHT22;8524;57.650;11.926;2022-07-23T08:14:14;17.40;99.90
16814;DHT22;8524;57.650;11.926;2022-07-23T08:16:41;17.40;99.90
16814;DHT22;8524;57.650;11.926;2022-07-23T08:19:08;17.40;99.90
16814;DHT22;8524;57.650;11.926;2022-07-23T08:21:35;17.40;99.90
16814;DHT22;8524;57.650;11.926;2022-07-23T08:24:02;17.50;99.90
16814;DHT22;8524;57.650;11.926;2022-07-23T08:26:29;17.50;99.90
16814;DHT22;8524;57.650;11.926;2022-07-23T08:28:56;17.70;99.90
16814;DHT22;8524;57.650;11.926;2022-07-23T08:31:24;17.70;99.90
16814;DHT22;8524;57.650;11.926;2022-07-23T08:33:51;17.70;99.90
16814;DHT22;8524;57.650;11.926;2022-07-23T08:36:19;17.80;99.90
16814;DHT22;8524;57.650;11.926;2022-07-23T08:38:46;17.80;99.90
16814;DHT22;8524;57.650;11.926;2022-07-23T08:41:14;17.90;99.90
16814;DHT22;8524;57.650;11.926;2022-07-23T08:43:42;17.90;99.90
16814;DHT22;8524;57.650;11.926;2022-07-23T08:46:11;17.80;99.90
16814;DHT22;8524;57.650;11.926;2022-07-23T08:48:41;17.90;99.90
16814;DHT22;8524;57.650;11.926;2022-07-23T08:51:08;18.00;99.90
16814;DHT22;8524;57.650;11.926;2022-07-23T08:53:36;18.10;99.90
16814;DHT22;8524;57.650;11.926;2022-07-23T08:56:06;18.20;99.90
16814;DHT22;8524;57.650;11.926;2022-07-23T08:58:33;18.30;99.90
16814;DHT22;8524;57.650;11.926;2022-07-23T09:01:00;18.40;99.90
16814;DHT22;8524;57.650;11.926;2022-07-23T09:03:29;18.40;99.90
16814;DHT22;8524;57.650;11.926;2022-07-23T09:05:58;18.50;99.90
16814;DHT22;8524;57.650;11.926;2022-07-23T09:08:34;18.60;99.90
16814;DHT22;8524;57.650;11.926;2022-07-23T09:11:03;18.60;99.90
16814;DHT22;8524;57.650;11.926;2022-07-23T09:13:35;18.70;99.90
16814;DHT22;8524;57.650;11.926;2022-07-23T09:16:06;18.70;99.90
16814;DHT22;8524;57.650;11.926;2022-07-23T09:18:37;18.70;99.90
16814;DHT22;8524;57.650;11.926;2022-07-23T09:21:16;18.60;99.90
16814;DHT22;8524;57.650;11.926;2022-07-23T09:23:45;18.50;99.90
16814;DHT22;8524;57.650;11.926;2022-07-23T09:29:02;18.50;99.90
16814;DHT22;8524;57.650;11.926;2022-07-23T09:31:45;18.50;99.90
16814;DHT22;8524;57.650;11.926;2022-07-23T09:34:14;18.50;99.90
16814;DHT22;8524;57.650;11.926;2022-07-23T09:36:43;18.50;99.90
16814;DHT22;8524;57.650;11.926;2022-07-23T09:39:12;18.50;99.90
16814;DHT22;8524;57.650;11.926;2022-07-23T09:41:41;18.70;99.90
16814;DHT22;8524;57.650;11.926;2022-07-23T09:44:10;18.70;99.90
16814;DHT22;8524;57.650;11.926;2022-07-23T09:46:38;18.60;99.90
16814;DHT22;8524;57.650;11.926;2022-07-23T09:49:17;18.60;99.90
16814;DHT22;8524;57.650;11.926;2022-07-23T09:51:51;18.60;99.90
16814;DHT22;8524;57.650;11.926;2022-07-23T09:54:32;18.50;99.90
16814;DHT22;8524;57.650;11.926;2022-07-23T09:57:04;18.50;99.90
16814;DHT22;8524;57.650;11.926;2022-07-23T09:59:33;18.50;99.90
16814;DHT22;8524;57.650;11.926;2022-07-23T10:02:01;18.60;99.90
16814;DHT22;8524;57.650;11.926;2022-07-23T10:04:30;18.60;99.90
16814;DHT22;8524;57.650;11.926;2022-07-23T10:07:01;18.60;99.90
16814;DHT22;8524;57.650;11.926;2022-07-23T10:09:31;18.70;99.90
16814;DHT22;8524;57.650;11.926;2022-07-23T10:12:01;18.80;99.90
16814;DHT22;8524;57.650;11.926;2022-07-23T10:14:33;18.80;99.90
16814;DHT22;8524;57.650;11.926;2022-07-23T10:17:00;18.90;99.90
16814;DHT22;8524;57.650;11.926;2022-07-23T10:19:28;18.90;99.90
16814;DHT22;8524;57.650;11.926;2022-07-23T10:22:02;18.90;99.90
16814;DHT22;8524;57.650;11.926;2022-07-23T10:24:41;18.70;99.90
16814;DHT22;8524;57.650;11.926;2022-07-23T10:27:37;18.80;99.90
16814;DHT22;8524;57.650;11.926;2022-07-23T10:30:10;18.80;99.90
16814;DHT22;8524;57.650;11.926;2022-07-23T10:32:45;18.90;99.90
16814;DHT22;8524;57.650;11.926;2022-07-23T10:35:25;18.90;99.90
16814;DHT22;8524;57.650;11.926;2022-07-23T10:38:00;18.90;99.90
16814;DHT22;8524;57.650;11.926;2022-07-23T10:40:28;19.00;99.90
16814;DHT22;8524;57.650;11.926;2022-07-23T10:42:59;19.00;99.90
16814;DHT22;8524;57.650;11.926;2022-07-23T10:45:34;19.20;99.90
16814;DHT22;8524;57.650;11.926;2022-07-23T10:48:15;19.20;99.90
16814;DHT22;8524;57.650;11.926;2022-07-23T10:50:43;19.30;99.90
16814;DHT22;8524;57.650;11.926;2022-07-23T10:53:14;19.20;99.90
16814;DHT22;8524;57.650;11.926;2022-07-23T10:55:47;19.10;99.90
16814;DHT22;8524;57.650;11.926;2022-07-23T10:58:20;19.10;99.90
16814;DHT22;8524;57.650;11.926;2022-07-23T11:00:47;19.10;99.90
16814;DHT22;8524;57.650;11.926;2022-07-23T11:03:34;19.10;99.90
16814;DHT22;8524;57.650;11.926;2022-07-23T11:06:04;19.30;99.90
16814;DHT22;8524;57.650;11.926;2022-07-23T11:08:33;19.40;99.90
16814;DHT22;8524;57.650;11.926;2022-07-23T11:11:10;19.60;99.90
16814;DHT22;8524;57.650;11.926;2022-07-23T11:13:48;19.40;99.90
16814;DHT22;8524;57.650;11.926;2022-07-23T11:16:23;19.40;99.90
16814;DHT22;8524;57.650;11.926;2022-07-23T11:19:05;19.50;99.90
16814;DHT22;8524;57.650;11.926;2022-07-23T11:21:46;19.60;99.90
16814;DHT22;8524;57.650;11.926;2022-07-23T11:24:19;19.30;99.90
16814;DHT22;8524;57.650;11.926;2022-07-23T11:26:54;19.30;99.90
16814;DHT22;8524;57.650;11.926;2022-07-23T11:29:44;19.40;99.90
16814;DHT22;8524;57.650;11.926;2022-07-23T11:35:22;19.80;99.90
16814;DHT22;8524;57.650;11.926;2022-07-23T11:37:49;20.00;99.90
16814;DHT22;8524;57.650;11.926;2022-07-23T11:40:20;20.00;99.90
16814;DHT22;8524;57.650;11.926;2022-07-23T11:42:56;19.80;99.90
16814;DHT22;8524;57.650;11.926;2022-07-23T11:45:25;20.00;99.90
16814;DHT22;8524;57.650;11.926;2022-07-23T11:47:53;20.10;99.90
16814;DHT22;8524;57.650;11.926;2022-07-23T11:50:23;20.10;99.90
16814;DHT22;8524;57.650;11.926;2022-07-23T11:52:50;20.10;99.90
16814;DHT22;8524;57.650;11.926;2022-07-23T11:55:17;20.10;99.90
16814;DHT22;8524;57.650;11.926;2022-07-23T11:57:46;20.20;99.90
16814;DHT22;8524;57.650;11.926;2022-07-23T12:00:15;20.10;99.90
16814;DHT22;8524;57.650;11.926;2022-07-23T12:02:45;20.10;99.90
16814;DHT22;8524;57.650;11.926;2022-07-23T12:05:14;20.30;99.90
16814;DHT22;8524;57.650;11.926;2022-07-23T12:07:43;20.30;99.90
16814;DHT22;8524;57.650;11.926;2022-07-23T12:10:13;20.20;99.90
16814;DHT22;8524;57.650;11.926;2022-07-23T12:12:41;20.30;99.90
16814;DHT22;8524;57.650;11.926;2022-07-23T12:15:10;20.30;99.90
16814;DHT22;8524;57.650;11.926;2022-07-23T12:17:39;20.50;99.90
16814;DHT22;8524;57.650;11.926;2022-07-23T12:20:08;20.50;99.90
16814;DHT22;8524;57.650;11.926;2022-07-23T12:22:38;20.60;99.90
16814;DHT22;8524;57.650;11.926;2022-07-23T12:25:07;20.60;99.90
16814;DHT22;8524;57.650;11.926;2022-07-23T12:27:35;20.70;99.90
16814;DHT22;8524;57.650;11.926;2022-07-23T12:30:21;20.40;99.90
16814;DHT22;8524;57.650;11.926;2022-07-23T12:32:50;20.30;99.90
16814;DHT22;8524;57.650;11.926;2022-07-23T12:35:18;20.10;99.90
16814;DHT22;8524;57.650;11.926;2022-07-23T12:37:47;20.00;99.90
16814;DHT22;8524;57.650;11.926;2022-07-23T12:40:24;20.00;99.90
16814;DHT22;8524;57.650;11.926;2022-07-23T12:42:53;20.20;99.90
16814;DHT22;8524;57.650;11.926;2022-07-23T12:45:22;20.20;99.90
16814;DHT22;8524;57.650;11.926;2022-07-23T12:47:54;20.30;99.90
16814;DHT22;8524;57.650;11.926;2022-07-23T12:50:37;20.50;99.90
16814;DHT22;8524;57.650;11.926;2022-07-23T12:53:07;20.80;99.90
16814;DHT22;8524;57.650;11.926;2022-07-23T12:55:34;20.80;99.90
16814;DHT22;8524;57.650;11.926;2022-07-23T12:58:09;21.00;99.90
16814;DHT22;8524;57.650;11.926;2022-07-23T13:01:08;21.00;99.90
16814;DHT22;8524;57.650;11.926;2022-07-23T13:03:38;20.80;99.90
16814;DHT22;8524;57.650;11.926;2022-07-23T13:06:07;20.60;99.90
16814;DHT22;8524;57.650;11.926;2022-07-23T13:08:36;20.70;99.90
16814;DHT22;8524;57.650;11.926;2022-07-23T13:11:04;20.90;99.90
16814;DHT22;8524;57.650;11.926;2022-07-23T13:13:33;20.80;99.90
16814;DHT22;8524;57.650;11.926;2022-07-23T13:16:01;21.00;99.90
16814;DHT22;8524;57.650;11.926;2022-07-23T13:18:30;21.00;99.90
16814;DHT22;8524;57.650;11.926;2022-07-23T13:20:57;21.00;99.90
16814;DHT22;8524;57.650;11.926;2022-07-23T13:23:24;21.10;99.90
16814;DHT22;8524;57.650;11.926;2022-07-23T13:25:51;21.30;99.90
16814;DHT22;8524;57.650;11.926;2022-07-23T13:28:20;21.20;99.90
16814;DHT22;8524;57.650;11.926;2022-07-23T13:30:48;21.10;99.90
16814;DHT22;8524;57.650;11.926;2022-07-23T13:33:17;21.20;99.90
16814;DHT22;8524;57.650;11.926;2022-07-23T13:35:45;21.50;99.90
16814;DHT22;8524;57.650;11.926;2022-07-23T13:38:12;21.70;99.90
16814;DHT22;8524;57.650;11.926;2022-07-23T13:40:41;21.70;99.90
16814;DHT22;8524;57.650;11.926;2022-07-23T13:43:09;21.60;99.90
16814;DHT22;8524;57.650;11.926;2022-07-23T13:45:37;21.20;99.90
16814;DHT22;8524;57.650;11.926;2022-07-23T13:48:05;21.20;99.90
16814;DHT22;8524;57.650;11.926;2022-07-23T13:50:33;21.20;99.90
16814;DHT22;8524;57.650;11.926;2022-07-23T13:53:03;21.10;99.90
16814;DHT22;8524;57.650;11.926;2022-07-23T13:55:30;21.10;99.90
16814;DHT22;8524;57.650;11.926;2022-07-23T13:57:57;20.90;99.90
16814;DHT22;8524;57.650;11.926;2022-07-23T14:00:25;20.80;99.90
16814;DHT22;8524;57.650;11.926;2022-07-23T14:02:52;20.90;99.90
16814;DHT22;8524;57.650;11.926;2022-07-23T14:05:20;20.70;99.90
16814;DHT22;8524;57.650;11.926;2022-07-23T14:07:47;20.70;99.90
16814;DHT22;8524;57.650;11.926;2022-07-23T14:10:17;20.70;99.90
16814;DHT22;8524;57.650;11.926;2022-07-23T14:12:44;20.70;99.90
16814;DHT22;8524;57.650;11.926;2022-07-23T14:15:12;20.50;99.90
16814;DHT22;8524;57.650;11.926;2022-07-23T14:17:41;20.60;99.90
16814;DHT22;8524;57.650;11.926;2022-07-23T14:20:10;20.50;99.90
16814;DHT22;8524;57.650;11.926;2022-07-23T14:22:38;20.30;99.90
16814;DHT22;8524;57.650;11.926;2022-07-23T14:25:07;20.30;99.90
16814;DHT22;8524;57.650;11.926;2022-07-23T14:27:36;20.20;99.90
16814;DHT22;8524;57.650;11.926;2022-07-23T14:30:05;20.20;99.90
16814;DHT22;8524;57.650;11.926;2022-07-23T14:32:33;20.20;99.90
16814;DHT22;8524;57.650;11.926;2022-07-23T14:35:00;20.20;99.90
16814;DHT22;8524;57.650;11.926;2022-07-23T14:37:26;20.40;99.90
16814;DHT22;8524;57.650;11.926;2022-07-23T14:39:53;20.40;99.90
16814;DHT22;8524;57.650;11.926;2022-07-23T14:42:20;20.80;99.90
16814;DHT22;8524;57.650;11.926;2022-07-23T14:44:49;21.00;99.90
16814;DHT22;8524;57.650;11.926;2022-07-23T14:47:16;21.20;99.90
16814;DHT22;8524;57.650;11.926;2022-07-23T14:49:43;21.20;99.90
16814;DHT22;8524;57.650;11.926;2022-07-23T14:52:10;21.20;99.90
16814;DHT22;8524;57.650;11.926;2022-07-23T14:54:37;21.50;99.90
16814;DHT22;8524;57.650;11.926;2022-07-23T14:57:04;21.50;99.90
16814;DHT22;8524;57.650;11.926;2022-07-23T14:59:33;21.40;99.90
16814;DHT22;8524;57.650;11.926;2022-07-23T15:02:01;21.50;99.90
16814;DHT22;8524;57.650;11.926;2022-07-23T15:04:28;21.50;99.90
16814;DHT22;8524;57.650;11.926;2022-07-23T15:06:55;21.40;99.90
16814;DHT22;8524;57.650;11.926;2022-07-23T15:09:22;21.40;99.90
16814;DHT22;8524;57.650;11.926;2022-07-23T15:11:49;21.30;99.90
16814;DHT22;8524;57.650;11.926;2022-07-23T15:14:16;21.30;99.90
16814;DHT22;8524;57.650;11.926;2022-07-23T15:16:43;21.20;99.90
16814;DHT22;8524;57.650;11.926;2022-07-23T15:19:12;21.30;99.90
16814;DHT22;8524;57.650;11.926;2022-07-23T15:21:38;21.20;99.90
16814;DHT22;8524;57.650;11.926;2022-07-23T15:24:06;21.20;99.90
16814;DHT22;8524;57.650;11.926;2022-07-23T15:26:33;21.10;99.90
16814;DHT22;8524;57.650;11.926;2022-07-23T15:28:59;21.10;99.90
16814;DHT22;8524;57.650;11.926;2022-07-23T15:31:28;21.10;99.90
16814;DHT22;8524;57.650;11.926;2022-07-23T15:33:55;21.40;99.90
16814;DHT22;8524;57.650;11.926;2022-07-23T15:36:23;21.40;99.90
16814;DHT22;8524;57.650;11.926;2022-07-23T15:38:50;21.30;99.90
16814;DHT22;8524;57.650;11.926;2022-07-23T15:41:17;21.40;99.90
16814;DHT22;8524;57.650;11.926;2022-07-23T15:43:43;21.30;99.90
16814;DHT22;8524;57.650;11.926;2022-07-23T15:46:10;21.20;99.90